Nearby METAR Reports

KLNK - Lincoln, Nebraska, USA
Distance from station: WNW 8mi, 13km
Updated: Sun, 28-Feb-2021 9:54pm CST
Clear
Clear
 Wind from calm
Wind: Calm
Temperature: 28°F , -2°C
Dew Point: 21°F , -6°C
Humidity: 74%
Barometer: 30.21 inHg , 1023 hPa
Clouds: Clear
Visibility: 10 miles , 16 km
2021/03/01 03:54 KLNK 010354Z 00000KT 10SM CLR M02/M06 A3021 RMK AO2 SLP240 T10221061
KAHQ - Wahoo, Nebraska, USA
Distance from station: N 31mi, 49km
Updated: Sun, 28-Feb-2021 10:35pm CST
Partly Cloudy
Partly Cloudy
 Wind from SSW
Wind: SSW 5 mph , 7 km/h
Temperature: 28°F , -2°C
Wind Chill: 22°F , -6°C
Dew Point: 25°F , -4°C
Humidity: 86%
Barometer: 30.19 inHg , 1022.4 hPa
Clouds: Partly Cloudy
Visibility: 10 miles , 16 km
Cloud details: Partly Cloudy 11000 ft
2021/03/01 04:35 KAHQ 010435Z AUTO 21004KT 10SM SCT110 M02/M04 A3019 RMK AO2 T10211041
 
KBIE - Beatrice Municip, Nebraska, USA
Distance from station: S 36mi, 57km
Updated: Sun, 28-Feb-2021 10:35pm CST
Clear
Clear
 Wind from calm
Wind: Calm
Temperature: 25°F , -4°C
Dew Point: 23°F , -5°C
Humidity: 93%
Barometer: 30.21 inHg , 1023 hPa
Clouds: Clear
Visibility: 10 miles , 16 km
2021/03/01 04:35 KBIE 010435Z AUTO 00000KT 10SM CLR M04/M05 A3021 RMK AO2 T10411050
KMLE - Omaha/Millard, Nebraska, USA
Distance from station: NE 39mi, 63km
Updated: Sun, 28-Feb-2021 10:35pm CST
Clear
Clear
 Wind from calm
Wind: Calm
Temperature: 27°F , -3°C
Dew Point: 21°F , -6°C
Humidity: 80%
Barometer: 30.20 inHg , 1022.7 hPa
Clouds: Clear
Visibility: 10 miles , 16 km
2021/03/01 04:35 KMLE 010435Z AUTO 00000KT 10SM CLR M03/M06 A3020 RMK AO2 T10271058
 
KPMV - Plattsmouth Muni, Nebraska, USA
Distance from station: ENE 39mi, 63km
Updated: Sun, 28-Feb-2021 10:35pm CST
Clear
Clear
 Wind from W
Wind: W 5 mph , 7 km/h
Temperature: 30°F , -1°C
Wind Chill: 25°F , -4°C
Dew Point: 23°F , -5°C
Humidity: 75%
Barometer: 30.20 inHg , 1022.7 hPa
Clouds: Clear
Visibility: 10 miles , 16 km
2021/03/01 04:35 KPMV 010435Z AUTO 27004KT 10SM CLR M01/M05 A3020 RMK AO2 T10151052
KAFK - Nebraska City, Nebraska, USA
Distance from station: ESE 43mi, 69km
Updated: Sun, 28-Feb-2021 10:35pm CST
Clear
Clear
 Wind from NNW
Wind: NNW 5 mph , 7 km/h
Temperature: 32°F , 0°C
Wind Chill: 27°F , -3°C
Dew Point: 25°F , -4°C
Humidity: 75%
Barometer: 30.20 inHg , 1022.7 hPa
Clouds: Clear
Visibility: 10 miles , 16 km
2021/03/01 04:35 KAFK 010435Z AUTO 33004KT 10SM CLR 00/M04 A3020 RMK AO2 T10041040
 
KOFF - Offutt Afb/Belle, Nebraska, USA
Distance from station: ENE 44mi, 70km
Updated: Sun, 28-Feb-2021 9:56pm CST
Clear
Clear
 Wind from calm
Wind: Calm
Temperature: 27°F , -3°C
Dew Point: 21°F , -6°C
Humidity: 80%
Barometer: 30.18 inHg , 1022 hPa
Clouds: Clear
Visibility: 10 miles , 16 km
2021/03/01 03:56 KOFF 010356Z AUTO 00000KT 10SM CLR M03/M06 A3018 RMK AO2 SLP237 T10301060 $
KFET - Fremont Muni Arp, Nebraska, USA
Distance from station: N 46mi, 74km
Updated: Sun, 28-Feb-2021 10:35pm CST
Clear
Clear
 Wind from S
Wind: S 3 mph , 6 km/h
Temperature: 27°F , -3°C
Dew Point: 23°F , -5°C
Humidity: 86%
Barometer: 30.19 inHg , 1022.4 hPa
Clouds: Clear
Visibility: 10 miles , 16 km
2021/03/01 04:35 KFET 010435Z AUTO 18003KT 10SM CLR M03/M05 A3019 RMK AO2 T10321049
 
KBTA - Blair Muni, Nebraska, USA
Distance from station: NNE 51mi, 82km
Updated: Sun, 28-Feb-2021 10:35pm CST
Clear
Clear
 Wind from calm
Wind: Calm
Temperature: 27°F , -3°C
Dew Point: 23°F , -5°C
Humidity: 86%
Barometer: 30.17 inHg , 1021.7 hPa
Clouds: Clear
Visibility: 10 miles , 16 km
2021/03/01 04:35 KBTA 010435Z AUTO 00000KT 10SM CLR M03/M05 A3017 RMK AO2 T10341052
KJYR - York, Nebraska, USA
Distance from station: W 52mi, 84km
Updated: Sun, 28-Feb-2021 10:35pm CST

 
2021/03/01 04:35 KJYR 010435Z AUTO RMK AO2 PNO PWINO TSNO
 
KOMA - Omaha/Eppley, Nebraska, USA
Distance from station: NE 53mi, 85km
Updated: Sun, 28-Feb-2021 9:52pm CST
Clear
Clear
 Wind from NW
Wind: NW 3 mph , 6 km/h
Temperature: 28°F , -2°C
Dew Point: 21°F , -6°C
Humidity: 74%
Barometer: 30.19 inHg , 1022.4 hPa
Clouds: Clear
Visibility: 10 miles , 16 km
2021/03/01 03:52 KOMA 010352Z 32003KT 10SM CLR M02/M06 A3019 RMK AO2 SLP232 T10221061
KOLU - Columbus Muni, Nebraska, USA
Distance from station: NW 58mi, 93km
Updated: Sun, 28-Feb-2021 9:56pm CST
Clear
Clear
 Wind from SSW
Wind: SSW 5 mph , 7 km/h
Temperature: 27°F , -3°C
Wind Chill: 21°F , -6°C
Dew Point: 21°F , -6°C
Humidity: 80%
Barometer: 30.18 inHg , 1022 hPa
Clouds: Clear
Visibility: 10 miles , 16 km
2021/03/01 03:56 KOLU 010356Z AUTO 20004KT 10SM CLR M03/M06 A3018 RMK AO2 SLP239 T10331056 FZRANO